sensor_id;sensor_type;location;lat;lon;timestamp;temperature;humidity
11284;DHT22;5698;47.332;11.180;2022-10-17T00:02:24;10.00;99.90
11284;DHT22;5698;47.332;11.180;2022-10-17T00:04:51;10.00;99.90
11284;DHT22;5698;47.332;11.180;2022-10-17T00:07:18;10.00;99.90
11284;DHT22;5698;47.332;11.180;2022-10-17T00:09:46;10.00;99.90
11284;DHT22;5698;47.332;11.180;2022-10-17T00:12:13;10.00;99.90
11284;DHT22;5698;47.332;11.180;2022-10-17T00:14:40;10.00;99.90
11284;DHT22;5698;47.332;11.180;2022-10-17T00:17:07;9.90;99.90
11284;DHT22;5698;47.332;11.180;2022-10-17T00:19:34;9.90;99.90
11284;DHT22;5698;47.332;11.180;2022-10-17T00:22:01;9.90;99.90
11284;DHT22;5698;47.332;11.180;2022-10-17T00:24:29;9.80;99.90
11284;DHT22;5698;47.332;11.180;2022-10-17T00:26:58;9.90;99.90
11284;DHT22;5698;47.332;11.180;2022-10-17T00:29:25;9.90;99.90
11284;DHT22;5698;47.332;11.180;2022-10-17T00:31:53;10.00;99.90
11284;DHT22;5698;47.332;11.180;2022-10-17T00:34:20;10.00;99.90
11284;DHT22;5698;47.332;11.180;2022-10-17T00:36:47;10.00;99.90
11284;DHT22;5698;47.332;11.180;2022-10-17T00:39:15;10.00;99.90
11284;DHT22;5698;47.332;11.180;2022-10-17T00:41:42;10.00;99.90
11284;DHT22;5698;47.332;11.180;2022-10-17T00:47:15;10.10;99.90
11284;DHT22;5698;47.332;11.180;2022-10-17T00:49:43;10.10;99.90
11284;DHT22;5698;47.332;11.180;2022-10-17T00:52:13;10.00;99.90
11284;DHT22;5698;47.332;11.180;2022-10-17T00:54:44;10.00;99.90
11284;DHT22;5698;47.332;11.180;2022-10-17T00:57:14;10.00;99.90
11284;DHT22;5698;47.332;11.180;2022-10-17T00:59:42;10.00;99.90
11284;DHT22;5698;47.332;11.180;2022-10-17T01:02:13;10.00;99.90
11284;DHT22;5698;47.332;11.180;2022-10-17T01:04:43;9.90;99.90
11284;DHT22;5698;47.332;11.180;2022-10-17T01:07:10;10.00;99.90
11284;DHT22;5698;47.332;11.180;2022-10-17T01:09:38;10.00;99.90
11284;DHT22;5698;47.332;11.180;2022-10-17T01:12:12;9.90;99.90
11284;DHT22;5698;47.332;11.180;2022-10-17T01:14:49;10.00;99.90
11284;DHT22;5698;47.332;11.180;2022-10-17T01:17:25;10.00;99.90
11284;DHT22;5698;47.332;11.180;2022-10-17T01:20:26;10.00;99.90
11284;DHT22;5698;47.332;11.180;2022-10-17T01:23:11;10.00;99.90
11284;DHT22;5698;47.332;11.180;2022-10-17T01:25:46;9.90;99.90
11284;DHT22;5698;47.332;11.180;2022-10-17T01:28:31;9.80;99.90
11284;DHT22;5698;47.332;11.180;2022-10-17T01:31:08;9.90;99.90
11284;DHT22;5698;47.332;11.180;2022-10-17T01:33:54;9.70;99.90
11284;DHT22;5698;47.332;11.180;2022-10-17T01:36:31;9.70;99.90
11284;DHT22;5698;47.332;11.180;2022-10-17T01:39:09;9.80;99.90
11284;DHT22;5698;47.332;11.180;2022-10-17T01:41:40;9.70;99.90
11284;DHT22;5698;47.332;11.180;2022-10-17T01:44:12;9.70;99.90
11284;DHT22;5698;47.332;11.180;2022-10-17T01:46:43;9.70;99.90
11284;DHT22;5698;47.332;11.180;2022-10-17T01:49:17;9.70;99.90
11284;DHT22;5698;47.332;11.180;2022-10-17T01:51:50;9.70;99.90
11284;DHT22;5698;47.332;11.180;2022-10-17T01:54:22;9.80;99.90
11284;DHT22;5698;47.332;11.180;2022-10-17T01:56:52;9.80;99.90
11284;DHT22;5698;47.332;11.180;2022-10-17T01:59:24;9.70;99.90
11284;DHT22;5698;47.332;11.180;2022-10-17T02:01:55;9.70;99.90
11284;DHT22;5698;47.332;11.180;2022-10-17T02:04:24;9.60;99.90
11284;DHT22;5698;47.332;11.180;2022-10-17T02:06:51;9.60;99.90
11284;DHT22;5698;47.332;11.180;2022-10-17T02:09:20;9.60;99.90
11284;DHT22;5698;47.332;11.180;2022-10-17T02:12:24;9.60;99.90
11284;DHT22;5698;47.332;11.180;2022-10-17T02:15:14;9.70;99.90
11284;DHT22;5698;47.332;11.180;2022-10-17T02:17:54;9.60;99.90
11284;DHT22;5698;47.332;11.180;2022-10-17T02:20:25;9.60;99.90
11284;DHT22;5698;47.332;11.180;2022-10-17T02:22:58;9.50;99.90
11284;DHT22;5698;47.332;11.180;2022-10-17T02:25:33;9.40;99.90
11284;DHT22;5698;47.332;11.180;2022-10-17T02:28:10;9.40;99.90
11284;DHT22;5698;47.332;11.180;2022-10-17T02:30:44;9.50;99.90
11284;DHT22;5698;47.332;11.180;2022-10-17T02:33:17;9.50;99.90
11284;DHT22;5698;47.332;11.180;2022-10-17T02:35:49;9.50;99.90
11284;DHT22;5698;47.332;11.180;2022-10-17T02:38:18;9.40;99.90
11284;DHT22;5698;47.332;11.180;2022-10-17T02:40:47;9.50;99.90
11284;DHT22;5698;47.332;11.180;2022-10-17T02:43:15;9.40;99.90
11284;DHT22;5698;47.332;11.180;2022-10-17T02:45:43;9.40;99.90
11284;DHT22;5698;47.332;11.180;2022-10-17T02:48:15;9.40;99.90
11284;DHT22;5698;47.332;11.180;2022-10-17T02:50:51;9.40;99.90
11284;DHT22;5698;47.332;11.180;2022-10-17T02:53:25;9.30;99.90
11284;DHT22;5698;47.332;11.180;2022-10-17T02:56:01;9.20;99.90
11284;DHT22;5698;47.332;11.180;2022-10-17T02:58:32;9.20;99.90
11284;DHT22;5698;47.332;11.180;2022-10-17T03:00:59;9.30;99.90
11284;DHT22;5698;47.332;11.180;2022-10-17T03:03:29;9.20;99.90
11284;DHT22;5698;47.332;11.180;2022-10-17T03:05:57;9.30;99.90
11284;DHT22;5698;47.332;11.180;2022-10-17T03:08:24;9.30;99.90
11284;DHT22;5698;47.332;11.180;2022-10-17T03:10:51;9.20;99.90
11284;DHT22;5698;47.332;11.180;2022-10-17T03:13:18;9.20;99.90
11284;DHT22;5698;47.332;11.180;2022-10-17T03:15:45;9.20;99.90
11284;DHT22;5698;47.332;11.180;2022-10-17T03:18:12;9.30;99.90
11284;DHT22;5698;47.332;11.180;2022-10-17T03:20:40;9.20;99.90
11284;DHT22;5698;47.332;11.180;2022-10-17T03:23:07;9.30;99.90
11284;DHT22;5698;47.332;11.180;2022-10-17T03:25:34;9.30;99.90
11284;DHT22;5698;47.332;11.180;2022-10-17T03:28:01;9.20;99.90
11284;DHT22;5698;47.332;11.180;2022-10-17T03:30:30;9.10;99.90
11284;DHT22;5698;47.332;11.180;2022-10-17T03:32:57;9.20;99.90
11284;DHT22;5698;47.332;11.180;2022-10-17T03:35:25;9.10;99.90
11284;DHT22;5698;47.332;11.180;2022-10-17T03:37:54;9.10;99.90
11284;DHT22;5698;47.332;11.180;2022-10-17T03:40:21;9.20;99.90
11284;DHT22;5698;47.332;11.180;2022-10-17T03:42:48;9.20;99.90
11284;DHT22;5698;47.332;11.180;2022-10-17T03:45:15;9.20;99.90
11284;DHT22;5698;47.332;11.180;2022-10-17T03:47:42;9.20;99.90
11284;DHT22;5698;47.332;11.180;2022-10-17T03:50:09;9.10;99.90
11284;DHT22;5698;47.332;11.180;2022-10-17T03:52:37;9.00;99.90
11284;DHT22;5698;47.332;11.180;2022-10-17T03:55:06;9.00;99.90
11284;DHT22;5698;47.332;11.180;2022-10-17T03:57:34;9.00;99.90
11284;DHT22;5698;47.332;11.180;2022-10-17T04:00:02;9.00;99.90
11284;DHT22;5698;47.332;11.180;2022-10-17T04:02:30;9.00;99.90
11284;DHT22;5698;47.332;11.180;2022-10-17T04:04:57;9.00;99.90
11284;DHT22;5698;47.332;11.180;2022-10-17T04:07:24;9.00;99.90
11284;DHT22;5698;47.332;11.180;2022-10-17T04:09:51;9.00;99.90
11284;DHT22;5698;47.332;11.180;2022-10-17T04:12:19;8.90;99.90
11284;DHT22;5698;47.332;11.180;2022-10-17T04:14:46;8.80;99.90
11284;DHT22;5698;47.332;11.180;2022-10-17T04:17:13;8.80;99.90
11284;DHT22;5698;47.332;11.180;2022-10-17T04:19:40;8.80;99.90
11284;DHT22;5698;47.332;11.180;2022-10-17T04:22:07;8.80;99.90
11284;DHT22;5698;47.332;11.180;2022-10-17T04:24:34;8.80;99.90
11284;DHT22;5698;47.332;11.180;2022-10-17T04:27:01;8.90;99.90
11284;DHT22;5698;47.332;11.180;2022-10-17T04:29:30;8.90;99.90
11284;DHT22;5698;47.332;11.180;2022-10-17T04:31:57;8.80;99.90
11284;DHT22;5698;47.332;11.180;2022-10-17T04:34:24;8.80;99.90
11284;DHT22;5698;47.332;11.180;2022-10-17T04:36:51;8.80;99.90
11284;DHT22;5698;47.332;11.180;2022-10-17T04:39:18;8.70;99.90
11284;DHT22;5698;47.332;11.180;2022-10-17T04:41:45;8.80;99.90
11284;DHT22;5698;47.332;11.180;2022-10-17T04:44:12;8.80;99.90
11284;DHT22;5698;47.332;11.180;2022-10-17T04:46:40;8.80;99.90
11284;DHT22;5698;47.332;11.180;2022-10-17T04:49:07;8.80;99.90
11284;DHT22;5698;47.332;11.180;2022-10-17T04:51:34;8.80;99.90
11284;DHT22;5698;47.332;11.180;2022-10-17T04:54:01;8.80;99.90
11284;DHT22;5698;47.332;11.180;2022-10-17T04:56:28;8.80;99.90
11284;DHT22;5698;47.332;11.180;2022-10-17T04:58:55;8.90;99.90
11284;DHT22;5698;47.332;11.180;2022-10-17T05:01:24;8.80;99.90
11284;DHT22;5698;47.332;11.180;2022-10-17T05:03:53;8.80;99.90
11284;DHT22;5698;47.332;11.180;2022-10-17T05:06:22;8.80;99.90
11284;DHT22;5698;47.332;11.180;2022-10-17T05:08:49;8.70;99.90
11284;DHT22;5698;47.332;11.180;2022-10-17T05:11:18;8.70;99.90
11284;DHT22;5698;47.332;11.180;2022-10-17T05:13:49;8.70;99.90
11284;DHT22;5698;47.332;11.180;2022-10-17T05:16:16;8.70;99.90
11284;DHT22;5698;47.332;11.180;2022-10-17T05:18:43;8.60;99.90
11284;DHT22;5698;47.332;11.180;2022-10-17T05:21:14;8.60;99.90
11284;DHT22;5698;47.332;11.180;2022-10-17T05:23:41;8.70;99.90
11284;DHT22;5698;47.332;11.180;2022-10-17T05:26:08;8.80;99.90
11284;DHT22;5698;47.332;11.180;2022-10-17T05:28:35;8.70;99.90
11284;DHT22;5698;47.332;11.180;2022-10-17T05:31:03;8.70;99.90
11284;DHT22;5698;47.332;11.180;2022-10-17T05:33:30;8.70;99.90
11284;DHT22;5698;47.332;11.180;2022-10-17T05:35:58;8.70;99.90
11284;DHT22;5698;47.332;11.180;2022-10-17T05:38:27;8.70;99.90
11284;DHT22;5698;47.332;11.180;2022-10-17T05:40:56;8.70;99.90
11284;DHT22;5698;47.332;11.180;2022-10-17T05:43:24;8.70;99.90
11284;DHT22;5698;47.332;11.180;2022-10-17T05:45:51;8.60;99.90
11284;DHT22;5698;47.332;11.180;2022-10-17T05:48:18;8.60;99.90
11284;DHT22;5698;47.332;11.180;2022-10-17T05:50:46;8.60;99.90
11284;DHT22;5698;47.332;11.180;2022-10-17T05:53:13;8.60;99.90
11284;DHT22;5698;47.332;11.180;2022-10-17T05:55:41;8.60;99.90
11284;DHT22;5698;47.332;11.180;2022-10-17T05:58:08;8.60;99.90
11284;DHT22;5698;47.332;11.180;2022-10-17T06:00:35;8.60;99.90
11284;DHT22;5698;47.332;11.180;2022-10-17T06:03:03;8.60;99.90
11284;DHT22;5698;47.332;11.180;2022-10-17T06:05:30;8.60;99.90
11284;DHT22;5698;47.332;11.180;2022-10-17T06:07:57;8.50;99.90
11284;DHT22;5698;47.332;11.180;2022-10-17T06:10:23;8.70;99.90
11284;DHT22;5698;47.332;11.180;2022-10-17T06:12:52;8.70;99.90
11284;DHT22;5698;47.332;11.180;2022-10-17T06:15:19;8.80;99.90
11284;DHT22;5698;47.332;11.180;2022-10-17T06:17:46;8.80;99.90
11284;DHT22;5698;47.332;11.180;2022-10-17T06:20:13;8.80;99.90
11284;DHT22;5698;47.332;11.180;2022-10-17T06:22:40;8.80;99.90
11284;DHT22;5698;47.332;11.180;2022-10-17T06:25:08;8.80;99.90
11284;DHT22;5698;47.332;11.180;2022-10-17T06:27:35;8.70;99.90
11284;DHT22;5698;47.332;11.180;2022-10-17T06:30:04;8.80;99.90
11284;DHT22;5698;47.332;11.180;2022-10-17T06:32:31;8.80;99.90
11284;DHT22;5698;47.332;11.180;2022-10-17T06:34:58;8.80;99.90
11284;DHT22;5698;47.332;11.180;2022-10-17T06:37:29;8.90;99.90
11284;DHT22;5698;47.332;11.180;2022-10-17T06:39:57;8.90;99.90
11284;DHT22;5698;47.332;11.180;2022-10-17T06:42:24;8.90;99.90
11284;DHT22;5698;47.332;11.180;2022-10-17T06:44:51;9.00;99.90
11284;DHT22;5698;47.332;11.180;2022-10-17T06:47:20;9.10;99.90
11284;DHT22;5698;47.332;11.180;2022-10-17T06:49:47;9.10;99.90
11284;DHT22;5698;47.332;11.180;2022-10-17T06:52:14;9.30;99.90
11284;DHT22;5698;47.332;11.180;2022-10-17T06:54:42;9.40;99.90
11284;DHT22;5698;47.332;11.180;2022-10-17T06:57:09;9.70;99.90
11284;DHT22;5698;47.332;11.180;2022-10-17T06:59:36;10.00;99.90
11284;DHT22;5698;47.332;11.180;2022-10-17T07:02:03;10.40;99.90
11284;DHT22;5698;47.332;11.180;2022-10-17T07:04:32;10.80;99.90
11284;DHT22;5698;47.332;11.180;2022-10-17T07:06:59;11.40;99.90
11284;DHT22;5698;47.332;11.180;2022-10-17T07:09:27;11.80;99.90
11284;DHT22;5698;47.332;11.180;2022-10-17T07:11:54;12.30;99.90
11284;DHT22;5698;47.332;11.180;2022-10-17T07:14:21;12.60;99.90
11284;DHT22;5698;47.332;11.180;2022-10-17T07:16:48;13.10;99.90
11284;DHT22;5698;47.332;11.180;2022-10-17T07:19:15;13.50;99.90
11284;DHT22;5698;47.332;11.180;2022-10-17T07:21:44;14.00;99.90
11284;DHT22;5698;47.332;11.180;2022-10-17T07:24:11;14.40;99.90
11284;DHT22;5698;47.332;11.180;2022-10-17T07:26:38;15.20;99.90
11284;DHT22;5698;47.332;11.180;2022-10-17T07:29:05;15.80;99.90
11284;DHT22;5698;47.332;11.180;2022-10-17T07:31:32;16.40;99.90
11284;DHT22;5698;47.332;11.180;2022-10-17T07:33:59;16.50;99.90
11284;DHT22;5698;47.332;11.180;2022-10-17T07:36:26;16.70;99.90
11284;DHT22;5698;47.332;11.180;2022-10-17T07:38:55;16.80;99.90
11284;DHT22;5698;47.332;11.180;2022-10-17T07:41:22;17.20;99.90
11284;DHT22;5698;47.332;11.180;2022-10-17T07:43:49;17.60;99.90
11284;DHT22;5698;47.332;11.180;2022-10-17T07:46:16;17.80;99.90
11284;DHT22;5698;47.332;11.180;2022-10-17T07:48:43;18.40;99.90
11284;DHT22;5698;47.332;11.180;2022-10-17T07:51:10;19.10;99.90
11284;DHT22;5698;47.332;11.180;2022-10-17T07:53:38;19.40;97.30
11284;DHT22;5698;47.332;11.180;2022-10-17T07:56:08;19.10;95.60
11284;DHT22;5698;47.332;11.180;2022-10-17T07:58:36;19.10;94.50
11284;DHT22;5698;47.332;11.180;2022-10-17T08:01:04;19.40;94.60
11284;DHT22;5698;47.332;11.180;2022-10-17T08:03:31;19.40;93.20
11284;DHT22;5698;47.332;11.180;2022-10-17T08:05:58;19.80;92.10
11284;DHT22;5698;47.332;11.180;2022-10-17T08:08:26;19.70;91.50
11284;DHT22;5698;47.332;11.180;2022-10-17T08:10:53;19.90;90.90
11284;DHT22;5698;47.332;11.180;2022-10-17T08:13:22;19.60;91.40
11284;DHT22;5698;47.332;11.180;2022-10-17T08:15:49;19.80;90.70
11284;DHT22;5698;47.332;11.180;2022-10-17T08:18:16;20.20;90.70
11284;DHT22;5698;47.332;11.180;2022-10-17T08:20:43;20.40;88.80
11284;DHT22;5698;47.332;11.180;2022-10-17T08:23:10;20.50;86.50
11284;DHT22;5698;47.332;11.180;2022-10-17T08:25:37;20.80;87.40
11284;DHT22;5698;47.332;11.180;2022-10-17T08:28:05;20.70;85.80
11284;DHT22;5698;47.332;11.180;2022-10-17T08:30:34;20.60;84.60
11284;DHT22;5698;47.332;11.180;2022-10-17T08:33:01;20.50;83.80
11284;DHT22;5698;47.332;11.180;2022-10-17T08:35:28;20.50;84.20
11284;DHT22;5698;47.332;11.180;2022-10-17T08:37:57;20.70;84.30
11284;DHT22;5698;47.332;11.180;2022-10-17T08:40:28;20.50;81.90
11284;DHT22;5698;47.332;11.180;2022-10-17T08:43:16;20.40;82.70
11284;DHT22;5698;47.332;11.180;2022-10-17T08:45:51;20.40;82.70
11284;DHT22;5698;47.332;11.180;2022-10-17T08:48:22;20.70;83.60
11284;DHT22;5698;47.332;11.180;2022-10-17T08:50:53;20.70;82.20
11284;DHT22;5698;47.332;11.180;2022-10-17T08:53:26;20.90;81.70
11284;DHT22;5698;47.332;11.180;2022-10-17T08:55:55;21.00;79.70
11284;DHT22;5698;47.332;11.180;2022-10-17T08:58:27;21.20;80.30
11284;DHT22;5698;47.332;11.180;2022-10-17T09:01:03;21.30;79.40
11284;DHT22;5698;47.332;11.180;2022-10-17T09:03:41;21.20;77.00
11284;DHT22;5698;47.332;11.180;2022-10-17T09:06:17;20.90;78.80
11284;DHT22;5698;47.332;11.180;2022-10-17T09:08:57;21.10;80.00
11284;DHT22;5698;47.332;11.180;2022-10-17T09:11:42;21.40;77.30
11284;DHT22;5698;47.332;11.180;2022-10-17T09:14:26;21.60;75.60
11284;DHT22;5698;47.332;11.180;2022-10-17T09:17:06;21.70;74.50
11284;DHT22;5698;47.332;11.180;2022-10-17T09:19:39;22.00;73.80
11284;DHT22;5698;47.332;11.180;2022-10-17T09:22:11;22.10;72.30
11284;DHT22;5698;47.332;11.180;2022-10-17T09:24:41;22.10;71.10
11284;DHT22;5698;47.332;11.180;2022-10-17T09:27:17;22.10;69.80
11284;DHT22;5698;47.332;11.180;2022-10-17T09:29:48;22.20;70.10
11284;DHT22;5698;47.332;11.180;2022-10-17T09:32:21;22.30;69.90
11284;DHT22;5698;47.332;11.180;2022-10-17T09:34:51;22.40;69.00
11284;DHT22;5698;47.332;11.180;2022-10-17T09:37:21;22.50;69.10
11284;DHT22;5698;47.332;11.180;2022-10-17T09:39:51;22.60;69.30
11284;DHT22;5698;47.332;11.180;2022-10-17T09:42:19;22.90;67.60
11284;DHT22;5698;47.332;11.180;2022-10-17T09:44:50;23.20;66.60
11284;DHT22;5698;47.332;11.180;2022-10-17T09:47:24;23.50;66.10
11284;DHT22;5698;47.332;11.180;2022-10-17T09:49:54;23.70;63.90
11284;DHT22;5698;47.332;11.180;2022-10-17T09:52:35;23.70;61.90
11284;DHT22;5698;47.332;11.180;2022-10-17T09:55:05;24.00;64.40
11284;DHT22;5698;47.332;11.180;2022-10-17T09:57:52;24.10;59.90
11284;DHT22;5698;47.332;11.180;2022-10-17T10:00:21;24.00;59.00
11284;DHT22;5698;47.332;11.180;2022-10-17T10:02:49;23.90;58.80
11284;DHT22;5698;47.332;11.180;2022-10-17T10:05:18;23.80;59.20
11284;DHT22;5698;47.332;11.180;2022-10-17T10:08:02;24.00;60.10
11284;DHT22;5698;47.332;11.180;2022-10-17T10:10:30;24.30;60.00
11284;DHT22;5698;47.332;11.180;2022-10-17T10:13:06;24.30;58.60
11284;DHT22;5698;47.332;11.180;2022-10-17T10:15:36;24.00;58.60
11284;DHT22;5698;47.332;11.180;2022-10-17T10:18:33;23.80;59.10
11284;DHT22;5698;47.332;11.180;2022-10-17T10:21:09;24.40;59.40
11284;DHT22;5698;47.332;11.180;2022-10-17T10:23:38;24.60;56.90
11284;DHT22;5698;47.332;11.180;2022-10-17T10:26:19;24.60;55.80
11284;DHT22;5698;47.332;11.180;2022-10-17T10:28:56;24.60;55.90
11284;DHT22;5698;47.332;11.180;2022-10-17T10:31:33;24.80;55.60
11284;DHT22;5698;47.332;11.180;2022-10-17T10:34:13;25.10;55.00
11284;DHT22;5698;47.332;11.180;2022-10-17T10:36:43;25.20;54.70
11284;DHT22;5698;47.332;11.180;2022-10-17T10:39:22;25.00;54.20
11284;DHT22;5698;47.332;11.180;2022-10-17T10:41:50;24.80;53.40
11284;DHT22;5698;47.332;11.180;2022-10-17T10:44:20;24.80;53.40
11284;DHT22;5698;47.332;11.180;2022-10-17T10:47:05;24.90;53.00
11284;DHT22;5698;47.332;11.180;2022-10-17T10:49:40;25.00;53.00
11284;DHT22;5698;47.332;11.180;2022-10-17T10:52:08;25.30;51.30
11284;DHT22;5698;47.332;11.180;2022-10-17T10:54:40;24.90;51.70
11284;DHT22;5698;47.332;11.180;2022-10-17T10:57:13;24.90;51.10
11284;DHT22;5698;47.332;11.180;2022-10-17T10:59:50;25.20;52.40
11284;DHT22;5698;47.332;11.180;2022-10-17T11:02:24;25.70;50.40
11284;DHT22;5698;47.332;11.180;2022-10-17T11:04:57;25.70;49.90
11284;DHT22;5698;47.332;11.180;2022-10-17T11:07:30;25.70;49.50
11284;DHT22;5698;47.332;11.180;2022-10-17T11:10:04;25.60;49.10
11284;DHT22;5698;47.332;11.180;2022-10-17T11:12:37;25.50;50.80
11284;DHT22;5698;47.332;11.180;2022-10-17T11:15:16;25.50;50.00
11284;DHT22;5698;47.332;11.180;2022-10-17T11:17:51;25.90;49.70
11284;DHT22;5698;47.332;11.180;2022-10-17T11:20:29;26.00;48.70
11284;DHT22;5698;47.332;11.180;2022-10-17T11:23:03;26.10;46.90
11284;DHT22;5698;47.332;11.180;2022-10-17T11:25:37;26.50;48.40
11284;DHT22;5698;47.332;11.180;2022-10-17T11:28:12;27.10;45.20
11284;DHT22;5698;47.332;11.180;2022-10-17T11:30:45;27.40;45.20
11284;DHT22;5698;47.332;11.180;2022-10-17T11:33:19;27.60;44.80
11284;DHT22;5698;47.332;11.180;2022-10-17T11:35:51;27.40;45.60
11284;DHT22;5698;47.332;11.180;2022-10-17T11:38:31;27.00;47.40
11284;DHT22;5698;47.332;11.180;2022-10-17T11:41:02;27.10;46.20
11284;DHT22;5698;47.332;11.180;2022-10-17T11:43:34;27.00;46.40
11284;DHT22;5698;47.332;11.180;2022-10-17T11:46:05;27.20;48.10
11284;DHT22;5698;47.332;11.180;2022-10-17T11:48:41;27.30;46.60
11284;DHT22;5698;47.332;11.180;2022-10-17T11:51:13;27.30;45.60
11284;DHT22;5698;47.332;11.180;2022-10-17T11:53:47;27.40;47.30
11284;DHT22;5698;47.332;11.180;2022-10-17T11:56:20;27.50;47.20
11284;DHT22;5698;47.332;11.180;2022-10-17T11:58:54;27.30;46.80
11284;DHT22;5698;47.332;11.180;2022-10-17T12:01:29;27.40;47.50
11284;DHT22;5698;47.332;11.180;2022-10-17T12:04:15;27.30;46.40
11284;DHT22;5698;47.332;11.180;2022-10-17T12:06:55;27.00;45.70
11284;DHT22;5698;47.332;11.180;2022-10-17T12:09:31;27.10;47.20
11284;DHT22;5698;47.332;11.180;2022-10-17T12:12:02;27.50;47.10
11284;DHT22;5698;47.332;11.180;2022-10-17T12:14:50;27.90;45.10
11284;DHT22;5698;47.332;11.180;2022-10-17T12:17:30;28.10;45.10
11284;DHT22;5698;47.332;11.180;2022-10-17T12:23:24;28.10;43.70
11284;DHT22;5698;47.332;11.180;2022-10-17T12:25:53;27.90;44.50
11284;DHT22;5698;47.332;11.180;2022-10-17T12:28:26;28.00;46.60
11284;DHT22;5698;47.332;11.180;2022-10-17T12:30:56;28.10;45.80
11284;DHT22;5698;47.332;11.180;2022-10-17T12:33:32;28.40;46.30
11284;DHT22;5698;47.332;11.180;2022-10-17T12:42:50;28.20;45.80
11284;DHT22;5698;47.332;11.180;2022-10-17T12:45:45;28.10;48.30
11284;DHT22;5698;47.332;11.180;2022-10-17T12:51:02;28.60;45.80
11284;DHT22;5698;47.332;11.180;2022-10-17T12:53:36;28.50;47.10
11284;DHT22;5698;47.332;11.180;2022-10-17T12:56:05;28.40;49.40
11284;DHT22;5698;47.332;11.180;2022-10-17T12:58:34;28.90;49.30
11284;DHT22;5698;47.332;11.180;2022-10-17T13:01:01;29.10;48.50
11284;DHT22;5698;47.332;11.180;2022-10-17T13:03:31;29.00;45.60
11284;DHT22;5698;47.332;11.180;2022-10-17T13:06:02;28.80;45.30
11284;DHT22;5698;47.332;11.180;2022-10-17T13:08:32;28.80;47.60
11284;DHT22;5698;47.332;11.180;2022-10-17T13:11:00;28.30;46.90
11284;DHT22;5698;47.332;11.180;2022-10-17T13:13:37;27.80;48.40
11284;DHT22;5698;47.332;11.180;2022-10-17T13:16:07;27.40;47.80
11284;DHT22;5698;47.332;11.180;2022-10-17T13:18:34;26.90;50.10
11284;DHT22;5698;47.332;11.180;2022-10-17T13:21:05;26.40;49.70
11284;DHT22;5698;47.332;11.180;2022-10-17T13:23:35;26.20;50.20
11284;DHT22;5698;47.332;11.180;2022-10-17T13:26:11;25.80;50.50
11284;DHT22;5698;47.332;11.180;2022-10-17T13:28:40;25.10;50.40
11284;DHT22;5698;47.332;11.180;2022-10-17T13:31:26;24.60;53.70
11284;DHT22;5698;47.332;11.180;2022-10-17T13:33:55;24.50;55.00
11284;DHT22;5698;47.332;11.180;2022-10-17T13:36:23;24.30;53.60
11284;DHT22;5698;47.332;11.180;2022-10-17T13:38:51;24.00;52.60
11284;DHT22;5698;47.332;11.180;2022-10-17T13:41:23;23.80;56.20
11284;DHT22;5698;47.332;11.180;2022-10-17T13:43:53;23.40;56.00
11284;DHT22;5698;47.332;11.180;2022-10-17T13:46:26;23.20;56.40
11284;DHT22;5698;47.332;11.180;2022-10-17T13:48:55;22.90;55.90
11284;DHT22;5698;47.332;11.180;2022-10-17T13:51:23;22.60;56.20
11284;DHT22;5698;47.332;11.180;2022-10-17T13:53:51;22.50;60.50
11284;DHT22;5698;47.332;11.180;2022-10-17T13:56:19;22.40;61.70
11284;DHT22;5698;47.332;11.180;2022-10-17T13:58:48;22.10;62.60
11284;DHT22;5698;47.332;11.180;2022-10-17T14:01:18;21.90;62.40
11284;DHT22;5698;47.332;11.180;2022-10-17T14:03:47;21.50;64.00
11284;DHT22;5698;47.332;11.180;2022-10-17T14:06:16;21.20;64.90
11284;DHT22;5698;47.332;11.180;2022-10-17T14:08:50;20.90;63.80
11284;DHT22;5698;47.332;11.180;2022-10-17T14:11:32;20.60;65.20
11284;DHT22;5698;47.332;11.180;2022-10-17T14:14:02;20.30;67.90
11284;DHT22;5698;47.332;11.180;2022-10-17T14:16:36;20.10;67.40
11284;DHT22;5698;47.332;11.180;2022-10-17T14:19:05;19.90;66.90
11284;DHT22;5698;47.332;11.180;2022-10-17T14:21:39;19.80;69.50
11284;DHT22;5698;47.332;11.180;2022-10-17T14:24:23;19.60;70.60
11284;DHT22;5698;47.332;11.180;2022-10-17T14:26:53;19.50;70.30
11284;DHT22;5698;47.332;11.180;2022-10-17T14:29:23;19.30;72.30
11284;DHT22;5698;47.332;11.180;2022-10-17T14:32:01;19.10;71.10
11284;DHT22;5698;47.332;11.180;2022-10-17T14:34:32;18.90;72.00
11284;DHT22;5698;47.332;11.180;2022-10-17T14:37:00;18.80;72.60
11284;DHT22;5698;47.332;11.180;2022-10-17T14:39:28;18.60;72.90
11284;DHT22;5698;47.332;11.180;2022-10-17T14:41:55;18.50;74.50
11284;DHT22;5698;47.332;11.180;2022-10-17T14:44:26;18.30;74.80
11284;DHT22;5698;47.332;11.180;2022-10-17T14:46:57;18.20;74.70
11284;DHT22;5698;47.332;11.180;2022-10-17T14:49:34;18.20;75.70
11284;DHT22;5698;47.332;11.180;2022-10-17T14:52:27;18.10;76.80
11284;DHT22;5698;47.332;11.180;2022-10-17T14:54:56;17.90;76.40
11284;DHT22;5698;47.332;11.180;2022-10-17T14:57:26;17.80;76.60
11284;DHT22;5698;47.332;11.180;2022-10-17T14:59:54;17.80;77.60
11284;DHT22;5698;47.332;11.180;2022-10-17T15:02:23;17.60;78.50
11284;DHT22;5698;47.332;11.180;2022-10-17T15:04:50;17.50;80.30
11284;DHT22;5698;47.332;11.180;2022-10-17T15:07:17;17.50;80.80
11284;DHT22;5698;47.332;11.180;2022-10-17T15:09:47;17.40;81.20
11284;DHT22;5698;47.332;11.180;2022-10-17T15:12:16;17.40;81.20
11284;DHT22;5698;47.332;11.180;2022-10-17T15:14:43;17.30;81.50
11284;DHT22;5698;47.332;11.180;2022-10-17T15:17:14;17.10;83.20
11284;DHT22;5698;47.332;11.180;2022-10-17T15:19:44;17.10;83.70
11284;DHT22;5698;47.332;11.180;2022-10-17T15:22:11;17.00;83.40
11284;DHT22;5698;47.332;11.180;2022-10-17T15:24:39;16.90;83.20
11284;DHT22;5698;47.332;11.180;2022-10-17T15:27:08;16.80;83.80
11284;DHT22;5698;47.332;11.180;2022-10-17T15:29:39;16.80;85.80
11284;DHT22;5698;47.332;11.180;2022-10-17T15:32:07;16.60;85.60
11284;DHT22;5698;47.332;11.180;2022-10-17T15:34:34;16.60;86.00
11284;DHT22;5698;47.332;11.180;2022-10-17T15:37:03;16.50;85.60
11284;DHT22;5698;47.332;11.180;2022-10-17T15:39:30;16.50;85.70
11284;DHT22;5698;47.332;11.180;2022-10-17T15:41:57;16.60;86.60
11284;DHT22;5698;47.332;11.180;2022-10-17T15:44:24;16.50;88.00
11284;DHT22;5698;47.332;11.180;2022-10-17T15:46:52;16.50;86.30
11284;DHT22;5698;47.332;11.180;2022-10-17T15:49:19;16.40;89.30
11284;DHT22;5698;47.332;11.180;2022-10-17T15:51:46;16.20;88.50
11284;DHT22;5698;47.332;11.180;2022-10-17T15:54:14;16.20;89.20
11284;DHT22;5698;47.332;11.180;2022-10-17T15:56:42;16.00;90.10
11284;DHT22;5698;47.332;11.180;2022-10-17T15:59:13;16.00;89.60
11284;DHT22;5698;47.332;11.180;2022-10-17T16:01:41;15.80;90.50
11284;DHT22;5698;47.332;11.180;2022-10-17T16:04:09;15.60;90.90
11284;DHT22;5698;47.332;11.180;2022-10-17T16:06:39;15.40;91.30
11284;DHT22;5698;47.332;11.180;2022-10-17T16:09:06;15.20;91.80
11284;DHT22;5698;47.332;11.180;2022-10-17T16:11:37;15.10;92.20
11284;DHT22;5698;47.332;11.180;2022-10-17T16:14:06;14.90;92.50
11284;DHT22;5698;47.332;11.180;2022-10-17T16:16:34;14.70;92.80